Time;durP1;ratioP1;P1;durP2;ratioP2;P2;SDS_P1;SDS_P2;PMS_P1;PMS_P2;Temp;Humidity;BMP_temperature;BMP_pressure;BME280_temperature;BME280_humidity;BME280_pressure;Samples;Min_cycle;Max_cycle;Signal;HPM_P1;HPM_P2
2023/03/01 00:01:29;;;;;;;170.00;75.80;;;2.20;99.90;;;;;;5056048;28;20512;-65
2023/03/01 00:03:56;;;;;;;227.55;102.65;;;2.30;99.90;;;;;;5055926;28;20145;-65
2023/03/01 00:06:23;;;;;;;213.02;98.85;;;2.30;99.90;;;;;;5055915;28;20032;-66
2023/03/01 00:08:49;;;;;;;218.68;101.78;;;2.30;99.90;;;;;;5055867;28;20033;-65
2023/03/01 00:11:18;;;;;;;216.40;99.32;;;2.30;99.90;;;;;;5037851;28;20449;-65
2023/03/01 00:13:46;;;;;;;214.77;95.88;;;2.20;99.90;;;;;;5055877;28;20036;-65
2023/03/01 00:16:16;;;;;;;223.07;100.63;;;2.10;99.90;;;;;;5055835;28;20029;-65
2023/03/01 00:18:42;;;;;;;246.63;107.60;;;2.10;99.90;;;;;;5055481;28;20079;-65
2023/03/01 00:21:08;;;;;;;207.23;95.85;;;2.20;99.90;;;;;;5055579;28;20029;-65
2023/03/01 00:23:35;;;;;;;208.15;93.18;;;2.20;99.90;;;;;;5055618;28;20564;-65
2023/03/01 00:26:02;;;;;;;191.75;86.70;;;2.20;99.90;;;;;;5055608;28;20029;-65
2023/03/01 00:28:27;;;;;;;173.15;77.50;;;2.20;99.90;;;;;;5055553;28;20036;-65
2023/03/01 00:30:53;;;;;;;184.20;80.20;;;2.20;99.90;;;;;;5055497;28;20025;-65
2023/03/01 00:33:19;;;;;;;186.38;84.28;;;2.30;99.90;;;;;;5055191;28;20029;-65
2023/03/01 00:35:45;;;;;;;203.35;88.95;;;2.30;99.90;;;;;;5055384;28;20482;-65
2023/03/01 00:38:11;;;;;;;194.05;89.93;;;2.20;99.90;;;;;;5053925;28;20108;-66
2023/03/01 00:40:37;;;;;;;193.20;86.78;;;2.30;99.90;;;;;;5035346;28;20041;-65
2023/03/01 00:43:04;;;;;;;193.38;85.75;;;2.40;99.90;;;;;;5033847;28;20053;-65
2023/03/01 00:45:31;;;;;;;200.95;91.97;;;2.40;99.90;;;;;;5035389;28;20026;-65
2023/03/01 00:47:58;;;;;;;190.95;86.78;;;2.40;99.90;;;;;;5033769;28;20029;-65
2023/03/01 00:50:24;;;;;;;192.23;86.20;;;2.40;99.90;;;;;;5035282;28;20033;-66
2023/03/01 00:52:56;;;;;;;198.20;86.70;;;2.50;99.90;;;;;;5035305;28;20029;-65
2023/03/01 00:55:22;;;;;;;184.30;82.93;;;2.50;99.90;;;;;;5035037;28;20030;-65
2023/03/01 00:57:48;;;;;;;197.27;85.10;;;2.50;99.90;;;;;;5035136;28;20075;-65
2023/03/01 01:00:15;;;;;;;187.30;82.43;;;2.50;99.90;;;;;;5034963;28;20096;-65
2023/03/01 01:02:41;;;;;;;196.02;85.72;;;2.50;99.90;;;;;;5033444;28;20030;-65
2023/03/01 01:05:07;;;;;;;189.05;82.63;;;2.40;99.90;;;;;;5034945;28;20034;-66
2023/03/01 01:07:33;;;;;;;196.75;83.28;;;2.40;99.90;;;;;;5034990;28;20699;-66
2023/03/01 01:09:59;;;;;;;195.00;83.32;;;2.40;99.90;;;;;;5034779;28;20026;-66
2023/03/01 01:12:25;;;;;;;190.25;80.57;;;2.40;99.90;;;;;;5034865;28;20018;-66
2023/03/01 01:14:51;;;;;;;196.77;84.80;;;2.40;99.90;;;;;;5034792;28;20025;-65
2023/03/01 01:17:17;;;;;;;190.73;82.63;;;2.40;99.90;;;;;;5033396;28;20037;-65
2023/03/01 01:19:43;;;;;;;181.60;80.07;;;2.40;99.90;;;;;;5034673;28;20031;-66
2023/03/01 01:22:09;;;;;;;183.27;80.63;;;2.40;99.90;;;;;;5033309;28;20021;-65
2023/03/01 01:24:35;;;;;;;186.57;80.13;;;2.30;99.90;;;;;;5034540;28;20026;-65
2023/03/01 01:27:01;;;;;;;197.55;80.50;;;2.30;99.90;;;;;;5034720;28;20052;-66
2023/03/01 01:29:27;;;;;;;206.60;91.10;;;2.20;99.90;;;;;;5034618;28;20076;-66
2023/03/01 01:31:53;;;;;;;202.60;87.57;;;2.10;99.90;;;;;;5033245;28;20048;-66
2023/03/01 01:34:21;;;;;;;200.70;84.20;;;2.10;99.90;;;;;;5034618;28;20033;-66
2023/03/01 01:36:54;;;;;;;195.60;82.57;;;2.10;99.90;;;;;;5034728;28;20443;-66
2023/03/01 01:39:21;;;;;;;208.02;86.50;;;2.10;99.90;;;;;;5036462;28;20037;-65
2023/03/01 01:41:48;;;;;;;192.20;81.18;;;2.10;99.90;;;;;;5054167;28;20064;-65
2023/03/01 01:44:24;;;;;;;209.68;87.60;;;2.20;99.90;;;;;;5053704;28;20035;-65
2023/03/01 01:47:02;;;;;;;191.98;81.38;;;2.20;99.90;;;;;;5054311;28;20382;-65
2023/03/01 01:49:31;;;;;;;201.45;83.82;;;2.30;99.90;;;;;;5054264;28;20025;-65
2023/03/01 01:52:35;;;;;;;188.88;79.50;;;2.30;99.90;;;;;;5036311;28;20043;-66
2023/03/01 01:55:23;;;;;;;203.15;82.85;;;2.20;99.90;;;;;;5051144;28;20124;-65
2023/03/01 01:57:53;;;;;;;202.30;83.88;;;2.20;99.90;;;;;;5054122;28;20029;-66
2023/03/01 02:00:22;;;;;;;221.82;89.43;;;2.20;99.90;;;;;;5054009;28;20032;-65
2023/03/01 02:02:54;;;;;;;178.40;79.20;;;2.10;99.90;;;;;;5053978;28;20029;-66
2023/03/01 02:05:43;;;;;;;186.05;79.47;;;2.20;99.90;;;;;;5036343;28;20075;-65
2023/03/01 02:08:12;;;;;;;176.43;79.50;;;2.20;99.90;;;;;;5054167;28;20467;-66
2023/03/01 02:10:39;;;;;;;186.90;79.20;;;2.20;99.90;;;;;;5053930;28;20520;-65
2023/03/01 02:13:06;;;;;;;190.75;83.57;;;2.20;99.90;;;;;;5036067;28;20389;-65
2023/03/01 02:15:33;;;;;;;181.25;79.25;;;2.20;99.90;;;;;;5054073;28;20033;-65
2023/03/01 02:18:00;;;;;;;177.20;77.18;;;2.20;99.90;;;;;;5053948;28;20025;-65
2023/03/01 02:20:34;;;;;;;174.35;75.43;;;2.30;99.90;;;;;;5036070;28;20029;-65
2023/03/01 02:23:00;;;;;;;164.65;69.85;;;2.30;99.90;;;;;;5053769;28;20631;-66
2023/03/01 02:25:44;;;;;;;165.55;67.00;;;2.40;99.90;;;;;;5054047;28;20348;-66
2023/03/01 02:28:17;;;;;;;180.80;77.25;;;2.40;99.90;;;;;;5053841;28;20500;-66
2023/03/01 02:33:35;;;;;;;152.68;67.75;;;2.30;99.90;;;;;;5053882;28;20485;-65
2023/03/01 02:36:13;;;;;;;172.90;72.32;;;2.30;99.90;;;;;;5035840;28;20032;-65
2023/03/01 02:38:42;;;;;;;162.52;69.85;;;2.20;99.90;;;;;;5048612;28;20036;-66
2023/03/01 02:41:13;;;;;;;164.80;70.80;;;2.30;99.90;;;;;;5032464;28;20517;-66
2023/03/01 02:43:39;;;;;;;161.45;67.75;;;2.20;99.90;;;;;;5033746;28;20022;-65
2023/03/01 02:46:18;;;;;;;180.82;70.78;;;2.30;99.90;;;;;;5032653;28;20042;-66
2023/03/01 02:48:49;;;;;;;158.13;68.75;;;2.30;99.90;;;;;;5033709;28;20025;-65
2023/03/01 02:51:27;;;;;;;187.30;72.80;;;2.40;99.90;;;;;;5032541;28;20045;-65
2023/03/01 02:54:13;;;;;;;158.15;67.43;;;2.30;99.90;;;;;;5033837;28;20403;-65
2023/03/01 02:56:40;;;;;;;174.60;71.57;;;2.30;99.90;;;;;;5036265;28;20083;-65
2023/03/01 02:59:07;;;;;;;190.35;76.57;;;2.30;99.90;;;;;;5035899;28;20026;-65
2023/03/01 03:01:36;;;;;;;177.60;72.22;;;2.30;99.90;;;;;;5035938;28;20034;-65
2023/03/01 03:04:10;;;;;;;182.57;72.03;;;2.20;99.90;;;;;;5036024;28;20025;-66
2023/03/01 03:06:37;;;;;;;139.20;62.00;;;2.20;99.90;;;;;;5035717;28;20036;-65
2023/03/01 03:09:04;;;;;;;164.63;67.50;;;2.10;99.90;;;;;;5035860;28;20529;-65
2023/03/01 03:11:32;;;;;;;169.40;71.70;;;2.10;99.90;;;;;;5035697;28;20059;-66
2023/03/01 03:13:58;;;;;;;192.50;81.63;;;2.10;99.90;;;;;;5035849;28;20625;-66
2023/03/01 03:16:24;;;;;;;188.05;72.40;;;2.20;99.90;;;;;;5035868;28;20025;-66
2023/03/01 03:18:51;;;;;;;176.38;71.13;;;2.20;99.90;;;;;;5035691;28;20124;-66
2023/03/01 03:21:17;;;;;;;202.68;79.40;;;2.10;99.90;;;;;;5036838;28;20033;-65
2023/03/01 03:23:43;;;;;;;242.43;96.03;;;2.20;99.90;;;;;;5036929;28;20037;-66
2023/03/01 03:26:13;;;;;;;215.50;85.10;;;2.40;99.90;;;;;;5036768;28;20026;-66
2023/03/01 03:28:39;;;;;;;154.63;65.43;;;2.40;99.90;;;;;;5036814;28;20037;-65
2023/03/01 03:31:07;;;;;;;129.45;57.15;;;2.30;99.90;;;;;;5036580;28;20084;-66
2023/03/01 03:33:33;;;;;;;124.10;53.22;;;2.20;99.90;;;;;;5036699;28;20021;-65
2023/03/01 03:35:59;;;;;;;117.88;52.20;;;2.30;99.90;;;;;;5036691;28;20113;-66
2023/03/01 03:38:25;;;;;;;133.25;54.92;;;2.40;99.90;;;;;;5040065;28;20434;-65
2023/03/01 03:41:02;;;;;;;159.82;63.05;;;2.40;99.90;;;;;;5056162;28;20033;-65
2023/03/01 03:43:30;;;;;;;188.57;74.18;;;2.40;99.90;;;;;;5056399;28;20490;-66
2023/03/01 03:45:56;;;;;;;193.60;72.32;;;2.20;99.90;;;;;;5056398;28;20100;-65
2023/03/01 03:48:23;;;;;;;203.13;75.80;;;2.20;99.90;;;;;;5056371;28;20025;-66
2023/03/01 03:50:54;;;;;;;200.70;76.30;;;2.20;99.90;;;;;;5056303;28;20037;-65
2023/03/01 03:53:22;;;;;;;236.88;84.38;;;2.30;99.90;;;;;;5056109;28;20037;-65
2023/03/01 03:55:51;;;;;;;223.23;81.43;;;2.00;99.90;;;;;;5056141;28;20037;-65
2023/03/01 03:58:19;;;;;;;225.73;80.45;;;2.10;99.90;;;;;;5056177;28;20037;-65
2023/03/01 04:00:46;;;;;;;227.73;81.72;;;2.10;99.90;;;;;;5055865;28;20037;-66
2023/03/01 04:03:14;;;;;;;240.98;84.82;;;2.10;99.90;;;;;;5056160;28;20029;-65
2023/03/01 04:05:41;;;;;;;213.75;78.43;;;2.10;99.90;;;;;;5055866;28;20079;-65
2023/03/01 04:08:08;;;;;;;216.40;77.82;;;2.20;99.90;;;;;;5055514;28;20032;-66
2023/03/01 04:10:43;;;;;;;230.10;81.18;;;2.20;99.90;;;;;;5055909;28;20104;-65
2023/03/01 04:13:16;;;;;;;217.73;79.88;;;2.10;99.90;;;;;;5055774;28;20028;-66
2023/03/01 04:15:45;;;;;;;213.90;76.97;;;2.10;99.90;;;;;;5055769;28;20108;-65
2023/03/01 04:18:13;;;;;;;218.23;77.38;;;2.10;99.90;;;;;;5055481;28;20493;-66
2023/03/01 04:20:39;;;;;;;221.52;78.00;;;2.30;99.90;;;;;;5055638;28;20032;-66
2023/03/01 04:23:12;;;;;;;195.43;73.28;;;2.20;99.90;;;;;;5055675;28;20079;-65
2023/03/01 04:25:54;;;;;;;192.05;72.32;;;2.30;99.90;;;;;;5055622;28;20060;-65
2023/03/01 04:28:26;;;;;;;226.30;78.65;;;2.40;99.90;;;;;;5055515;28;20430;-66
2023/03/01 04:30:52;;;;;;;194.13;71.45;;;2.20;99.90;;;;;;5055413;28;20461;-66
2023/03/01 04:33:18;;;;;;;194.93;73.63;;;2.30;99.90;;;;;;5055452;28;20112;-65
2023/03/01 04:35:45;;;;;;;208.02;73.72;;;2.30;99.90;;;;;;5055362;28;20033;-65
2023/03/01 04:38:11;;;;;;;208.02;81.13;;;2.40;99.90;;;;;;5053963;28;20029;-66
2023/03/01 04:40:37;;;;;;;204.73;75.40;;;2.40;99.90;;;;;;5035367;28;20099;-66
2023/03/01 04:43:04;;;;;;;191.65;71.95;;;2.30;99.90;;;;;;5035148;28;20553;-65
2023/03/01 04:45:34;;;;;;;207.18;74.53;;;2.40;99.90;;;;;;5035424;28;20033;-66
2023/03/01 04:48:00;;;;;;;178.90;68.72;;;2.30;99.90;;;;;;5035375;28;20028;-66
2023/03/01 04:50:26;;;;;;;193.20;71.60;;;2.30;99.90;;;;;;5035479;28;20082;-66
2023/03/01 04:52:52;;;;;;;181.40;69.22;;;2.40;99.90;;;;;;5035261;28;20479;-65
2023/03/01 04:55:19;;;;;;;206.20;76.40;;;2.30;99.90;;;;;;5035084;28;20036;-66
2023/03/01 04:57:45;;;;;;;196.63;76.47;;;2.30;99.90;;;;;;5034956;28;20034;-66
2023/03/01 05:00:19;;;;;;;191.88;71.38;;;2.30;99.90;;;;;;5035058;28;20028;-66
2023/03/01 05:02:53;;;;;;;192.90;75.45;;;2.40;99.90;;;;;;5035094;28;20072;-66
2023/03/01 05:05:25;;;;;;;197.82;75.07;;;2.30;99.90;;;;;;5034904;28;20036;-66
2023/03/01 05:07:56;;;;;;;186.98;69.63;;;2.30;99.90;;;;;;5035143;28;20116;-66
2023/03/01 05:10:22;;;;;;;169.38;68.35;;;2.30;99.90;;;;;;5034770;28;20025;-66
2023/03/01 05:12:48;;;;;;;183.70;72.85;;;2.40;99.90;;;;;;5034847;28;20089;-66
2023/03/01 05:15:14;;;;;;;163.27;66.35;;;2.30;99.90;;;;;;5034967;28;20125;-66
2023/03/01 05:17:41;;;;;;;178.88;71.80;;;2.30;99.90;;;;;;5034458;28;20471;-66
2023/03/01 05:20:10;;;;;;;242.23;86.22;;;2.30;99.90;;;;;;5034141;28;20068;-66
2023/03/01 05:22:37;;;;;;;227.65;80.10;;;2.30;99.90;;;;;;5034748;28;20025;-66
2023/03/01 05:25:04;;;;;;;202.75;75.95;;;2.30;99.90;;;;;;5034711;28;20029;-65
2023/03/01 05:27:30;;;;;;;212.82;79.38;;;2.20;99.90;;;;;;5034749;28;20025;-66
2023/03/01 05:29:56;;;;;;;239.82;85.32;;;2.20;99.90;;;;;;5034624;28;20029;-66
2023/03/01 05:32:22;;;;;;;250.40;85.85;;;2.30;99.90;;;;;;5034556;28;20048;-66
2023/03/01 05:34:48;;;;;;;249.88;86.40;;;2.30;99.90;;;;;;5034535;28;20416;-66
2023/03/01 05:37:14;;;;;;;246.65;89.38;;;2.40;99.90;;;;;;5034611;28;20026;-66
2023/03/01 05:39:41;;;;;;;258.95;95.63;;;2.40;99.90;;;;;;5048057;28;20529;-66
2023/03/01 05:42:10;;;;;;;257.48;95.10;;;2.40;99.90;;;;;;5054106;28;20365;-66
2023/03/01 05:44:36;;;;;;;250.05;92.10;;;2.40;99.90;;;;;;5054334;28;20040;-66
2023/03/01 05:47:02;;;;;;;262.42;97.05;;;2.40;99.90;;;;;;5054150;28;20021;-65
2023/03/01 05:49:29;;;;;;;239.57;93.25;;;2.40;99.90;;;;;;5054413;28;20078;-66
2023/03/01 05:51:55;;;;;;;267.40;94.32;;;2.30;99.90;;;;;;5054300;28;20546;-66
2023/03/01 05:54:22;;;;;;;254.85;94.32;;;2.10;99.90;;;;;;5054132;28;20071;-66
2023/03/01 05:56:48;;;;;;;283.45;104.72;;;2.10;99.90;;;;;;5054292;28;20033;-65
2023/03/01 05:59:16;;;;;;;241.45;93.22;;;2.20;99.90;;;;;;5054296;28;20029;-66
2023/03/01 06:01:42;;;;;;;228.13;94.35;;;2.20;99.90;;;;;;5054148;28;20033;-66
2023/03/01 06:04:08;;;;;;;219.90;93.43;;;2.20;99.90;;;;;;5054245;28;20091;-66
2023/03/01 06:06:39;;;;;;;217.13;88.60;;;2.30;99.90;;;;;;5054085;28;20029;-65
2023/03/01 06:09:08;;;;;;;234.20;96.95;;;2.20;99.90;;;;;;5054116;28;20033;-66
2023/03/01 06:11:35;;;;;;;227.27;89.03;;;2.20;99.90;;;;;;5054079;28;20037;-65
2023/03/01 06:14:00;;;;;;;226.90;91.68;;;2.10;99.90;;;;;;5054055;28;20055;-66
2023/03/01 06:16:26;;;;;;;245.68;92.93;;;2.10;99.90;;;;;;5054001;28;20033;-66
2023/03/01 06:18:52;;;;;;;221.48;80.57;;;2.00;99.90;;;;;;5054125;28;20040;-65
2023/03/01 06:21:18;;;;;;;190.23;75.10;;;2.00;99.90;;;;;;5053889;28;20067;-66
2023/03/01 06:23:44;;;;;;;166.02;67.53;;;2.00;99.90;;;;;;5054023;28;20021;-66
2023/03/01 06:26:10;;;;;;;172.07;67.72;;;2.10;99.90;;;;;;5054002;28;20021;-66
2023/03/01 06:28:36;;;;;;;170.23;68.13;;;2.00;99.90;;;;;;5053882;28;20475;-65
2023/03/01 06:31:02;;;;;;;169.23;72.72;;;2.10;99.90;;;;;;5056745;28;20024;-66
2023/03/01 06:33:28;;;;;;;157.85;63.65;;;2.30;99.90;;;;;;5057781;28;20135;-66
2023/03/01 06:35:56;;;;;;;140.25;59.58;;;2.40;99.90;;;;;;5057576;28;20488;-65
2023/03/01 06:38:23;;;;;;;166.73;68.18;;;2.50;99.90;;;;;;5054611;28;20030;-65
2023/03/01 06:40:54;;;;;;;181.10;70.55;;;2.40;99.90;;;;;;5037598;28;20033;-66
2023/03/01 06:43:20;;;;;;;;;;;2.10;99.90;;;;;;5037780;28;20502;-66
2023/03/01 06:45:46;;;;;;;166.68;60.60;;;2.20;99.90;;;;;;5037550;28;20514;-66
2023/03/01 06:48:12;;;;;;;148.60;60.75;;;2.30;99.90;;;;;;5037533;28;20029;-66
2023/03/01 06:50:38;;;;;;;157.73;61.85;;;2.40;99.90;;;;;;5037452;28;20118;-65
2023/03/01 06:53:04;;;;;;;160.48;63.83;;;2.50;99.90;;;;;;5037461;28;20061;-65
2023/03/01 06:55:31;;;;;;;154.02;62.13;;;2.50;99.90;;;;;;5037402;28;20057;-65
2023/03/01 06:57:58;;;;;;;154.80;62.40;;;2.40;99.90;;;;;;5037283;28;20068;-66
2023/03/01 07:00:25;;;;;;;155.68;61.95;;;2.30;99.90;;;;;;5037152;28;20148;-66
2023/03/01 07:02:51;;;;;;;164.88;63.22;;;2.30;99.90;;;;;;5036821;28;20045;-65
2023/03/01 07:05:17;;;;;;;181.13;65.18;;;2.30;99.90;;;;;;5037240;28;20434;-65
2023/03/01 07:07:43;;;;;;;177.57;67.22;;;2.30;99.90;;;;;;5037199;28;20021;-65
2023/03/01 07:10:10;;;;;;;185.10;75.80;;;2.20;99.90;;;;;;5037173;28;20036;-65
2023/03/01 07:12:36;;;;;;;164.73;66.60;;;2.30;99.90;;;;;;5037039;28;20083;-65
2023/03/01 07:15:03;;;;;;;171.30;64.00;;;2.30;99.90;;;;;;5037153;28;20049;-66
2023/03/01 07:17:29;;;;;;;155.07;60.08;;;2.30;99.90;;;;;;5037186;28;20113;-66
2023/03/01 07:19:55;;;;;;;159.68;64.13;;;2.30;99.90;;;;;;5037016;28;20056;-66
2023/03/01 07:22:20;;;;;;;170.45;67.63;;;2.40;99.90;;;;;;5036849;28;20029;-66
2023/03/01 07:24:46;;;;;;;166.55;65.82;;;2.50;99.90;;;;;;5036879;28;20492;-66
2023/03/01 07:27:12;;;;;;;156.40;61.42;;;2.40;99.90;;;;;;5036868;28;20026;-65
2023/03/01 07:29:39;;;;;;;158.90;60.97;;;2.50;99.90;;;;;;5036723;28;20032;-66
2023/03/01 07:32:05;;;;;;;156.45;56.65;;;2.50;99.90;;;;;;5036737;28;20036;-66
2023/03/01 07:34:32;;;;;;;142.02;52.92;;;2.60;99.90;;;;;;5036633;28;20037;-66
2023/03/01 07:36:58;;;;;;;149.10;57.42;;;2.70;99.90;;;;;;5036723;28;20368;-66
2023/03/01 07:39:24;;;;;;;134.35;56.33;;;2.70;99.90;;;;;;5048144;28;20033;-66
2023/03/01 07:41:51;;;;;;;140.65;53.58;;;2.60;99.90;;;;;;5055298;28;20533;-66
2023/03/01 07:44:20;;;;;;;138.82;54.83;;;2.80;99.90;;;;;;5038408;28;20032;-66
2023/03/01 07:46:46;;;;;;;137.25;56.22;;;2.90;99.90;;;;;;5056303;28;20497;-66
2023/03/01 07:49:12;;;;;;;138.73;54.10;;;2.90;99.90;;;;;;5056349;28;20424;-66
2023/03/01 07:51:38;;;;;;;148.70;55.95;;;2.80;99.90;;;;;;5056307;28;20410;-66
2023/03/01 07:54:04;;;;;;;136.75;54.38;;;2.80;99.90;;;;;;5055985;28;20501;-66
2023/03/01 07:56:30;;;;;;;153.30;63.75;;;2.90;99.90;;;;;;5056225;28;20475;-66
2023/03/01 07:58:56;;;;;;;150.38;73.18;;;3.00;99.90;;;;;;5056245;28;20085;-66
2023/03/01 08:01:22;;;;;;;152.80;74.03;;;3.00;99.90;;;;;;5056145;28;20033;-66
2023/03/01 08:03:48;;;;;;;132.93;62.95;;;3.10;99.90;;;;;;5056027;28;20582;-66
2023/03/01 08:06:16;;;;;;;126.60;55.72;;;3.10;99.90;;;;;;5056039;28;20128;-66
2023/03/01 08:08:43;;;;;;;143.05;60.80;;;3.20;99.90;;;;;;5055888;28;20048;-66
2023/03/01 08:11:11;;;;;;;146.13;57.10;;;3.10;99.90;;;;;;5056009;28;20473;-66
2023/03/01 08:13:38;;;;;;;134.70;57.70;;;3.10;99.90;;;;;;5055768;28;20473;-66
2023/03/01 08:16:07;;;;;;;116.95;48.40;;;3.00;99.90;;;;;;5055718;28;20029;-66
2023/03/01 08:18:33;;;;;;;136.43;53.65;;;3.10;99.90;;;;;;5055477;28;20040;-66
2023/03/01 08:21:11;;;;;;;140.15;54.65;;;3.10;99.90;;;;;;5055655;28;20024;-66
2023/03/01 08:23:38;;;;;;;147.93;54.72;;;3.20;99.90;;;;;;5055596;28;20449;-66
2023/03/01 08:26:09;;;;;;;136.57;53.00;;;3.10;99.90;;;;;;5055676;28;20029;-66
2023/03/01 08:28:36;;;;;;;151.52;54.00;;;3.10;99.90;;;;;;5055635;28;20052;-66
2023/03/01 08:31:02;;;;;;;159.35;57.25;;;3.00;99.90;;;;;;5055366;28;20451;-66
2023/03/01 08:33:28;;;;;;;147.73;58.47;;;3.00;99.90;;;;;;5055599;28;20028;-66
2023/03/01 08:36:03;;;;;;;167.20;62.00;;;3.10;99.90;;;;;;5055458;28;20024;-66
2023/03/01 08:38:30;;;;;;;153.20;62.67;;;3.20;99.90;;;;;;5051017;28;20087;-66
2023/03/01 08:41:00;;;;;;;153.55;60.88;;;3.10;99.90;;;;;;5035278;28;20065;-66
2023/03/01 08:43:26;;;;;;;178.93;70.43;;;3.10;99.90;;;;;;5035238;28;20031;-66
2023/03/01 08:45:52;;;;;;;181.30;73.45;;;3.20;99.90;;;;;;5035217;28;20458;-66
2023/03/01 08:48:18;;;;;;;160.25;64.50;;;3.30;99.90;;;;;;5035190;28;20074;-66
2023/03/01 08:50:43;;;;;;;92.60;42.90;;;3.40;99.90;;;;;;5035269;28;20373;-66
2023/03/01 08:53:09;;;;;;;98.28;43.40;;;3.30;99.90;;;;;;5035108;28;20435;-66
2023/03/01 08:55:35;;;;;;;96.15;42.70;;;3.30;99.90;;;;;;5035100;28;20128;-66
2023/03/01 08:58:01;;;;;;;113.32;47.58;;;3.40;99.90;;;;;;5035074;28;20076;-66
2023/03/01 09:00:27;;;;;;;100.15;46.13;;;3.40;99.90;;;;;;5035121;28;20022;-66
2023/03/01 09:02:53;;;;;;;119.75;53.63;;;3.50;99.90;;;;;;5035311;28;20025;-66
2023/03/01 09:05:19;;;;;;;121.88;57.15;;;3.50;99.90;;;;;;5034892;28;20100;-66
2023/03/01 09:07:45;;;;;;;91.55;43.22;;;3.40;99.90;;;;;;5034765;28;20041;-66
2023/03/01 09:10:11;;;;;;;77.95;38.20;;;3.50;99.90;;;;;;5035052;28;20025;-66
2023/03/01 09:12:37;;;;;;;81.90;39.38;;;3.50;99.90;;;;;;5034824;28;20025;-66
2023/03/01 09:15:03;;;;;;;90.68;41.28;;;3.70;99.90;;;;;;5034818;28;20037;-66
2023/03/01 09:17:29;;;;;;;73.22;36.03;;;3.80;99.90;;;;;;5034667;28;20036;-66
2023/03/01 09:19:55;;;;;;;72.00;35.40;;;3.90;99.90;;;;;;5034669;28;20417;-66
2023/03/01 09:22:21;;;;;;;74.53;34.00;;;4.00;99.90;;;;;;5034597;28;20036;-66
2023/03/01 09:24:47;;;;;;;78.57;37.28;;;3.90;99.90;;;;;;5034735;28;20185;-66
2023/03/01 09:27:14;;;;;;;78.38;37.60;;;3.70;99.90;;;;;;5034606;28;20026;-66
2023/03/01 09:29:40;;;;;;;78.15;37.70;;;3.80;99.90;;;;;;5034479;28;20041;-66
2023/03/01 09:32:07;;;;;;;90.60;42.42;;;3.60;99.90;;;;;;5034583;28;20030;-66
2023/03/01 09:35:00;;;;;;;91.13;45.25;;;3.80;99.90;;;;;;5034505;28;20033;-66
2023/03/01 09:37:19;;;;;;;100.00;50.38;;;3.90;99.90;;;;;;5034496;28;20037;-66
2023/03/01 09:39:45;;;;;;;101.43;49.08;;;4.10;99.90;;;;;;5048834;28;20458;-66
2023/03/01 09:42:13;;;;;;;102.10;51.65;;;4.00;99.90;;;;;;5054127;28;20049;-66
2023/03/01 09:45:16;;;;;;;99.07;46.92;;;4.10;99.90;;;;;;5054243;28;20024;-66
2023/03/01 09:47:41;;;;;;;96.15;48.58;;;4.30;99.90;;;;;;5051355;28;20116;-66
2023/03/01 09:50:14;;;;;;;99.60;50.60;;;4.30;99.90;;;;;;5054322;28;20049;-66
2023/03/01 09:53:06;;;;;;;92.35;46.40;;;4.30;99.90;;;;;;5054271;28;20224;-66
2023/03/01 09:55:44;;;;;;;93.75;47.65;;;4.40;99.90;;;;;;5054021;28;20425;-66
2023/03/01 09:58:29;;;;;;;101.78;44.85;;;4.40;99.90;;;;;;5054189;28;20117;-66
2023/03/01 10:00:59;;;;;;;99.90;45.30;;;4.30;99.90;;;;;;5054202;28;20483;-66
2023/03/01 10:03:33;;;;;;;98.38;44.53;;;4.10;99.90;;;;;;5054113;28;20021;-66
2023/03/01 10:06:08;;;;;;;128.05;52.90;;;4.30;99.90;;;;;;5057001;28;20375;-66
2023/03/01 10:08:41;;;;;;;145.50;60.05;;;4.30;99.90;;;;;;5058139;28;20051;-66
2023/03/01 10:11:30;;;;;;;196.68;72.82;;;4.30;99.90;;;;;;5058076;28;20029;-66
2023/03/01 10:14:05;;;;;;;200.38;74.13;;;4.20;99.90;;;;;;5058072;28;20111;-66
2023/03/01 10:16:54;;;;;;;206.13;78.03;;;4.20;99.90;;;;;;5057911;28;20040;-66
2023/03/01 10:19:30;;;;;;;230.85;80.78;;;4.10;99.90;;;;;;5057800;28;20033;-66
2023/03/01 10:22:02;;;;;;;206.45;76.50;;;4.00;99.90;;;;;;5057537;28;20390;-66
2023/03/01 10:24:34;;;;;;;252.15;91.70;;;4.00;99.90;;;;;;5057997;28;20036;-66
2023/03/01 10:27:18;;;;;;;272.30;99.40;;;3.90;99.90;;;;;;5057822;28;20534;-66
2023/03/01 10:29:56;;;;;;;250.93;92.47;;;3.80;99.90;;;;;;5057656;28;20025;-66
2023/03/01 10:32:22;;;;;;;244.20;89.47;;;3.90;99.90;;;;;;5057635;28;20025;-66
2023/03/01 10:34:48;;;;;;;265.27;94.80;;;4.00;99.90;;;;;;5057731;28;20040;-66
2023/03/01 10:37:19;;;;;;;250.63;87.72;;;4.10;99.90;;;;;;5057669;28;20100;-66
2023/03/01 10:40:07;;;;;;;223.52;81.18;;;4.20;99.90;;;;;;5043185;28;20424;-66
2023/03/01 10:42:49;;;;;;;236.45;84.72;;;4.30;99.90;;;;;;5037471;28;20112;-66
2023/03/01 10:45:29;;;;;;;257.70;91.78;;;4.40;99.90;;;;;;5037565;28;20029;-66
2023/03/01 10:48:14;;;;;;;;;;;4.50;99.90;;;;;;5037962;28;20037;-66
2023/03/01 10:50:48;;;;;;;231.55;81.10;;;4.40;99.90;;;;;;5037828;28;19913;-66
2023/03/01 10:53:31;;;;;;;235.35;85.45;;;4.50;99.90;;;;;;5037481;28;20025;-66
2023/03/01 10:56:01;;;;;;;228.85;81.05;;;4.20;99.90;;;;;;5037315;28;20025;-66
2023/03/01 10:58:28;;;;;;;208.43;73.18;;;4.20;99.90;;;;;;5037262;28;20167;-66
2023/03/01 11:00:55;;;;;;;199.82;77.35;;;4.20;99.90;;;;;;5037354;28;20471;-66
2023/03/01 11:03:25;;;;;;;204.18;74.85;;;4.10;99.90;;;;;;5037298;28;20464;-66
2023/03/01 11:05:58;;;;;;;235.95;83.55;;;4.00;99.90;;;;;;5037628;28;20017;-66
2023/03/01 11:08:45;;;;;;;263.55;94.30;;;4.00;99.90;;;;;;5037313;28;20026;-66
2023/03/01 11:11:31;;;;;;;279.70;99.97;;;4.00;99.90;;;;;;5037179;28;20032;-66
2023/03/01 11:14:18;;;;;;;286.27;108.20;;;4.00;99.90;;;;;;5037014;28;20029;-66
2023/03/01 11:16:47;;;;;;;284.10;101.88;;;4.00;99.90;;;;;;5036023;28;20040;-66
2023/03/01 11:19:13;;;;;;;251.05;95.03;;;4.10;99.90;;;;;;5036920;28;20037;-66
2023/03/01 11:22:03;;;;;;;280.13;100.18;;;4.00;99.90;;;;;;5036817;28;20064;-66
2023/03/01 11:24:42;;;;;;;308.23;102.83;;;4.10;99.90;;;;;;5036889;28;20360;-66
2023/03/01 11:27:32;;;;;;;300.75;104.88;;;4.00;99.90;;;;;;5036997;28;20022;-66
2023/03/01 11:30:33;;;;;;;311.30;107.75;;;4.00;99.90;;;;;;5036607;28;20030;-66
2023/03/01 11:33:11;;;;;;;319.38;109.75;;;4.00;99.90;;;;;;5034563;28;20038;-66
2023/03/01 11:35:45;;;;;;;308.58;104.32;;;4.20;99.90;;;;;;5036568;28;20076;-66
2023/03/01 11:38:25;;;;;;;321.38;107.70;;;4.30;99.90;;;;;;5038024;28;20096;-66
2023/03/01 11:41:13;;;;;;;294.75;101.43;;;4.30;99.90;;;;;;5056245;28;20028;-66
2023/03/01 11:43:53;;;;;;;294.95;104.55;;;4.30;99.90;;;;;;5056366;28;20040;-66
2023/03/01 11:46:31;;;;;;;291.33;100.68;;;4.10;99.90;;;;;;5056456;28;20025;-66
2023/03/01 11:49:23;;;;;;;294.05;101.32;;;4.20;99.90;;;;;;5056442;28;20021;-66
2023/03/01 11:52:01;;;;;;;279.60;100.13;;;4.20;99.90;;;;;;5056161;28;20393;-66
2023/03/01 11:54:56;;;;;;;275.13;101.30;;;4.40;99.90;;;;;;5056213;28;20335;-66
2023/03/01 11:57:34;;;;;;;253.52;92.25;;;4.40;99.90;;;;;;5056058;28;20036;-66
2023/03/01 12:00:15;;;;;;;268.25;99.07;;;4.40;99.90;;;;;;5056323;28;20029;-66
2023/03/01 12:03:25;;;;;;;317.15;129.70;;;4.60;99.90;;;;;;5055997;28;20152;-66
2023/03/01 12:06:03;;;;;;;277.63;105.65;;;4.80;99.90;;;;;;5056024;28;20079;-66
2023/03/01 12:09:04;;;;;;;267.13;101.70;;;5.00;99.90;;;;;;5055968;28;20108;-66
2023/03/01 12:11:48;;;;;;;269.85;95.53;;;5.10;99.90;;;;;;5056021;28;20033;-66
2023/03/01 12:14:34;;;;;;;268.75;99.70;;;5.10;99.90;;;;;;5055953;28;20037;-66
2023/03/01 12:17:18;;;;;;;259.38;96.13;;;5.10;99.90;;;;;;5056076;28;20485;-66
2023/03/01 12:19:51;;;;;;;259.27;94.75;;;5.10;99.90;;;;;;5055790;28;20037;-66
2023/03/01 12:22:40;;;;;;;269.77;98.10;;;5.20;99.90;;;;;;5055712;28;20028;-66
2023/03/01 12:25:38;;;;;;;258.60;96.18;;;5.20;99.90;;;;;;5055687;28;20497;-66
2023/03/01 12:28:21;;;;;;;267.38;94.85;;;5.30;99.90;;;;;;5055212;28;20533;-66
2023/03/01 12:31:06;;;;;;;258.80;95.20;;;4.80;99.90;;;;;;5055509;28;20029;-66
2023/03/01 12:34:01;;;;;;;255.15;94.50;;;5.10;99.90;;;;;;5055545;28;20033;-66
2023/03/01 12:36:48;;;;;;;244.93;92.78;;;4.90;99.90;;;;;;5055583;28;20096;-66
2023/03/01 12:39:43;;;;;;;223.43;88.28;;;5.10;99.90;;;;;;5045327;28;20379;-66
2023/03/01 12:42:18;;;;;;;228.82;85.90;;;5.20;99.90;;;;;;5035232;28;20049;-66
2023/03/01 12:44:44;;;;;;;265.50;94.95;;;5.20;99.90;;;;;;5035387;28;20026;-66
2023/03/01 12:47:38;;;;;;;240.55;93.25;;;5.20;99.90;;;;;;5035341;28;20034;-66
2023/03/01 12:50:19;;;;;;;262.85;95.75;;;5.30;99.90;;;;;;5035349;28;20498;-66